Terminal Aerodrome Forecast
Issued by NWS Brownsville, TX

Home | Current Version | Previous Version | Text Only | Print | Product List | Glossary On
Versions: 1 2 3 4 5 6 7 8 9 10 11 12 13 14 15 16 17 18 19 20 21 22 23 24 25 26
506
FTUS44 KBRO 300520
TAFBRO
TAF
KBRO 300520Z 3006/0106 15010KT 6SM BR SCT010 OVC035
     FM301400 12008KT 6SM HZ BKN020
     FM301700 11010KT 6SM HZ BKN025
     FM010200 12005KT 6SM HZ BKN020=

USA.gov is the U.S. government's official web portal to all federal, state and local government web resources and services.